Terminal Aerodrome Forecast
Issued by NWS

Home | Current Version | Previous Version | Text Only | Print | Product List | Glossary On
Versions: 1 2 3 4 5 6 7 8 9 10 11 12 13 14 15 16 17 18 19 20 21 22 23 24
000
FTUS43 KDLH 182100 AAA
TAFHIB
TAF AMD
KHIB 182107Z 1821/1918 30007KT P6SM VCSH BKN025
     FM190200 26005KT 5SM -SN OVC030
      TEMPO 1905/1909 2SM -SN OVC015
     FM191200 30010KT 3SM -SN OVC020=

USA.gov is the U.S. government's official web portal to all federal, state and local government web resources and services.